SCDA 201700Z 22014KT CAVOK 24/16 Q1012